Pagina principale
METAR-TAF:

METAR-TAF

Aeroporti :

Aeroporto di Dakar-Léopold Sedar Senghor

Dakar, Senegal

latitudine: 14-44N, longitudine: 017-30W, altezza: 27 m

Osservazione

Il bollettino è stato emesso 38 minuti fa, alle 14:00 UTC
Vento 14 kt da nord/nord-est
Temperature 23°C
Umidità 65%
Pressione 1014 hPa
Visibilità 10 km o più
nessuna nube inferiore a 1500 m e nessun cumulonembo

METAR: GOOY 181400Z 02014KT CAVOK 23/16 Q1014

Ora: 14:38 (14:38 UTC)

Previsione

Il bollettino è stato emesso 3 ore e 8 minuti fa, alle 11:30 UTC
Previsione valida dal 18 alle 12 UTC al 19 alle 18 UTC
Vento 13 kt da nord
Visibilità: 8000 m

TAF: GOOY 181130Z 1812/1918 36013KT 8000 NSC

Osservazioni e previsioni meteorologiche di più di 4000 aeroporti (messaggi METAR e TAF).

Le stazioni disponibili sono rappresentate dai dischi gialli e rossi sulla carta.

Puntare il mouse per vedere il nome della stazione.

Clicca sopra per visualizzare le osservazioni e previsioni meteorologiche.

Per cambiare la mappa : fare clic sui pulsanti verdi con una croce nera per ingrandire, il pulsante verde con un trattino per diminuire, o sulla freccia verde per le mappe adiacenti.


METAR-TAF: